createdAt,value
2019-04-16T00:02:18.877Z,11.18
2019-04-16T00:05:08.357Z,10.80
2019-04-16T00:07:55.403Z,11.73
2019-04-16T00:10:42.900Z,11.80
2019-04-16T00:13:30.678Z,11.40
2019-04-16T00:16:01.355Z,8.05
2019-04-16T00:18:31.373Z,12.25
2019-04-16T00:21:19.146Z,11.48
2019-04-16T00:24:18.229Z,11.80
2019-04-16T00:26:46.075Z,11.35
2019-04-16T00:29:16.093Z,13.00
2019-04-16T00:32:07.846Z,12.10
2019-04-16T00:34:36.577Z,12.28
2019-04-16T00:37:06.544Z,11.97
2019-04-16T00:39:36.546Z,12.60
2019-04-16T00:42:06.593Z,12.18
2019-04-16T00:44:36.852Z,12.30
2019-04-16T00:47:07.116Z,11.90
2019-04-16T00:49:37.993Z,13.05
2019-04-16T00:52:08.333Z,12.60
2019-04-16T00:54:39.278Z,13.22
2019-04-16T00:57:12.279Z,12.85
2019-04-16T00:59:42.316Z,12.90
2019-04-16T01:02:12.394Z,12.45
2019-04-16T01:04:42.413Z,11.57
2019-04-16T01:07:12.425Z,11.68
2019-04-16T01:09:42.441Z,11.78
2019-04-16T01:12:12.454Z,12.88
2019-04-16T01:14:42.743Z,12.40
2019-04-16T01:17:12.686Z,12.10
2019-04-16T01:19:42.712Z,11.78
2019-04-16T01:22:15.766Z,13.50
2019-04-16T01:24:44.297Z,12.37
2019-04-16T01:27:14.288Z,12.23
2019-04-16T01:29:44.264Z,12.20
2019-04-16T01:32:32.004Z,11.85
2019-04-16T01:35:33.337Z,9.30
2019-04-16T01:38:40.348Z,12.35
2019-04-16T01:41:12.729Z,11.45
2019-04-16T01:43:42.639Z,12.30
2019-04-16T01:46:12.649Z,12.70
2019-04-16T01:48:42.744Z,11.75
2019-04-16T01:51:15.445Z,12.45
2019-04-16T01:53:44.454Z,12.10
2019-04-16T01:56:14.526Z,12.25
2019-04-16T01:58:44.517Z,12.15
2019-04-16T02:01:14.571Z,12.55
2019-04-16T02:03:48.648Z,12.50
2019-04-16T02:06:16.240Z,12.63
2019-04-16T02:08:46.187Z,12.25
2019-04-16T02:11:16.179Z,12.03
2019-04-16T02:13:46.968Z,12.25
2019-04-16T02:16:17.022Z,11.93
2019-04-16T02:18:47.007Z,12.33
2019-04-16T02:21:16.992Z,12.10
2019-04-16T02:23:48.121Z,11.40
2019-04-16T02:26:20.656Z,12.28
2019-04-16T02:28:50.251Z,12.50
2019-04-16T02:31:20.212Z,12.73
2019-04-16T02:33:50.239Z,12.98
2019-04-16T02:36:20.548Z,11.38
2019-04-16T02:38:53.418Z,12.53
2019-04-16T02:41:23.305Z,11.90
2019-04-16T02:43:54.102Z,11.80
2019-04-16T02:46:30.782Z,12.47
2019-04-16T02:48:55.770Z,12.80
2019-04-16T02:51:44.596Z,11.45
2019-04-16T02:54:32.285Z,12.53
2019-04-16T02:57:25.737Z,13.03
2019-04-16T02:59:54.109Z,11.78
2019-04-16T03:02:54.005Z,11.60
2019-04-16T03:05:39.142Z,11.68
2019-04-16T03:08:09.064Z,12.35
2019-04-16T03:10:41.897Z,12.90
2019-04-16T03:13:10.772Z,11.90
2019-04-16T03:16:06.536Z,12.55
2019-04-16T03:18:46.891Z,11.70
2019-04-16T03:21:14.199Z,12.58
2019-04-16T03:23:46.604Z,11.88
2019-04-16T03:26:18.083Z,11.95
2019-04-16T03:28:48.251Z,11.88
2019-04-16T03:31:22.237Z,11.80
2019-04-16T03:33:50.977Z,12.88
2019-04-16T03:36:21.194Z,12.05
2019-04-16T03:38:51.175Z,12.88
2019-04-16T03:41:21.164Z,12.45
2019-04-16T03:43:51.163Z,13.32
2019-04-16T03:46:21.157Z,11.90
2019-04-16T03:48:52.634Z,12.80
2019-04-16T03:51:22.860Z,12.95
2019-04-16T03:53:52.824Z,13.28
2019-04-16T03:56:22.840Z,12.73
2019-04-16T03:58:52.832Z,12.63
2019-04-16T04:01:22.905Z,12.18
2019-04-16T04:03:57.073Z,12.10
2019-04-16T04:06:24.522Z,12.65
2019-04-16T04:08:54.571Z,12.53
2019-04-16T04:11:24.585Z,12.75
2019-04-16T04:13:54.578Z,13.00
2019-04-16T04:16:24.790Z,12.45
2019-04-16T04:18:54.904Z,12.75
2019-04-16T04:21:24.925Z,12.75
2019-04-16T04:23:59.705Z,13.13
2019-04-16T04:26:26.587Z,12.60
2019-04-16T04:28:56.633Z,13.30
2019-04-16T04:31:26.715Z,12.37
2019-04-16T04:33:58.327Z,12.35
2019-04-16T04:36:28.504Z,12.18
2019-04-16T04:38:58.833Z,11.48
2019-04-16T04:41:28.957Z,11.85
2019-04-16T04:44:03.885Z,12.13
2019-04-16T04:46:30.674Z,11.95
2019-04-16T04:49:00.700Z,12.47
2019-04-16T04:51:30.708Z,12.23
2019-04-16T04:54:00.751Z,11.95
2019-04-16T04:56:30.736Z,12.47
2019-04-16T04:59:02.530Z,12.33
2019-04-16T05:01:32.345Z,11.33
2019-04-16T05:04:24.028Z,12.23
2019-04-16T05:06:57.321Z,12.07
2019-04-16T05:09:29.411Z,11.75
2019-04-16T05:11:58.834Z,12.07
2019-04-16T05:14:28.855Z,11.60
2019-04-16T05:16:58.879Z,11.53
2019-04-16T05:19:28.897Z,11.63
2019-04-16T05:21:58.981Z,11.70
2019-04-16T05:24:29.900Z,12.30
2019-04-16T05:27:00.041Z,12.37
2019-04-16T05:29:30.052Z,10.68
2019-04-16T05:32:00.079Z,11.45
2019-04-16T05:34:30.082Z,12.07
2019-04-16T05:37:00.102Z,11.05
2019-04-16T05:39:30.089Z,11.88
2019-04-16T05:42:00.138Z,11.75
2019-04-16T05:44:33.060Z,11.63
2019-04-16T05:47:01.763Z,11.25
2019-04-16T05:49:34.552Z,11.22
2019-04-16T05:52:07.678Z,11.63
2019-04-16T05:55:01.417Z,12.07
2019-04-16T05:57:33.858Z,11.95
2019-04-16T06:00:09.322Z,12.20
2019-04-16T06:02:39.958Z,10.63
2019-04-16T06:05:09.913Z,10.63
2019-04-16T06:07:39.892Z,10.68
2019-04-16T06:10:10.294Z,12.05
2019-04-16T06:13:00.921Z,11.55
2019-04-16T06:15:53.931Z,12.00
2019-04-16T06:18:41.688Z,10.60
2019-04-16T06:21:25.614Z,11.63
2019-04-16T06:24:09.279Z,11.05
2019-04-16T06:26:51.418Z,10.45
2019-04-16T06:29:52.483Z,11.43
2019-04-16T06:32:34.200Z,11.18
2019-04-16T06:35:23.075Z,11.10
2019-04-16T06:38:15.560Z,11.30
2019-04-16T06:41:04.079Z,11.55
2019-04-16T06:43:40.308Z,10.78
2019-04-16T06:46:27.844Z,11.70
2019-04-16T06:49:29.049Z,8.30
2019-04-16T06:52:33.191Z,10.72
2019-04-16T06:55:20.819Z,10.80
2019-04-16T06:58:12.453Z,11.35
2019-04-16T07:00:58.801Z,10.53
2019-04-16T07:03:49.483Z,11.43
2019-04-16T07:06:37.146Z,11.15
2019-04-16T07:09:40.857Z,10.98
2019-04-16T07:12:10.692Z,10.60
2019-04-16T07:14:40.729Z,11.12
2019-04-16T07:17:10.679Z,11.25
2019-04-16T07:19:42.142Z,11.10
2019-04-16T07:22:12.306Z,11.95
2019-04-16T07:24:42.303Z,11.57
2019-04-16T07:27:12.409Z,10.90
2019-04-16T07:30:06.933Z,11.88
2019-04-16T07:32:50.466Z,11.80
2019-04-16T07:35:39.333Z,11.88
2019-04-16T07:38:46.718Z,11.73
2019-04-16T07:41:31.167Z,10.95
2019-04-16T07:44:18.365Z,11.70
2019-04-16T07:47:19.805Z,11.97
2019-04-16T07:49:59.962Z,12.50
2019-04-16T07:52:35.814Z,11.78
2019-04-16T07:55:16.929Z,9.68
2019-04-16T07:57:46.973Z,11.70
2019-04-16T08:00:17.053Z,11.73
2019-04-16T08:02:47.069Z,11.83
2019-04-16T08:05:17.014Z,12.05
2019-04-16T08:07:49.695Z,11.73
2019-04-16T08:10:18.562Z,12.33
2019-04-16T08:12:52.404Z,12.43
2019-04-16T08:15:22.509Z,11.68
2019-04-16T08:17:52.535Z,12.60
2019-04-16T08:20:22.577Z,11.88
2019-04-16T08:22:55.636Z,12.60
2019-04-16T08:25:33.519Z,12.58
2019-04-16T08:27:59.545Z,12.03
2019-04-16T08:30:34.539Z,12.23
2019-04-16T08:33:01.286Z,12.07
2019-04-16T08:35:31.390Z,12.13
2019-04-16T08:38:01.409Z,13.03
2019-04-16T08:40:31.384Z,12.03
2019-04-16T08:43:01.385Z,12.50
2019-04-16T08:45:31.439Z,11.05
2019-04-16T08:48:01.790Z,11.97
2019-04-16T08:50:31.779Z,11.48
2019-04-16T08:53:01.835Z,12.75
2019-04-16T08:55:31.856Z,12.13
2019-04-16T08:58:05.909Z,11.68
2019-04-16T09:00:34.156Z,11.55
2019-04-16T09:03:04.291Z,11.93
2019-04-16T09:05:34.425Z,11.53
2019-04-16T09:08:15.577Z,11.35
2019-04-16T09:10:45.676Z,11.63
2019-04-16T09:13:18.745Z,12.40
2019-04-16T09:15:48.728Z,11.78
2019-04-16T09:18:40.819Z,10.55
2019-04-16T09:21:11.676Z,11.28
2019-04-16T09:23:45.607Z,11.18
2019-04-16T09:26:26.906Z,11.10
2019-04-16T09:29:15.839Z,10.98
2019-04-16T09:32:17.011Z,12.45
2019-04-16T09:35:11.352Z,11.80
2019-04-16T09:37:57.346Z,12.25
2019-04-16T09:40:49.054Z,11.80
2019-04-16T09:43:21.532Z,12.53
2019-04-16T09:45:51.732Z,11.45
2019-04-16T09:48:21.929Z,12.37
2019-04-16T09:50:52.188Z,12.00
2019-04-16T09:53:32.602Z,11.55
2019-04-16T09:55:54.047Z,11.68
2019-04-16T09:58:25.562Z,11.97
2019-04-16T10:01:07.376Z,12.30
2019-04-16T10:03:39.332Z,10.80
2019-04-16T10:06:09.379Z,11.90
2019-04-16T10:08:44.502Z,12.28
2019-04-16T10:11:11.089Z,11.93
2019-04-16T10:13:41.100Z,11.48
2019-04-16T10:16:14.000Z,12.03
2019-04-16T10:18:42.908Z,11.12
2019-04-16T10:21:13.020Z,11.22
2019-04-16T10:24:13.154Z,11.33
2019-04-16T10:26:43.114Z,11.10
2019-04-16T10:29:15.487Z,11.43
2019-04-16T10:31:45.625Z,11.05
2019-04-16T10:34:15.717Z,10.88
2019-04-16T10:36:46.047Z,10.95
2019-04-16T10:39:36.014Z,11.03
2019-04-16T10:42:17.643Z,11.05
2019-04-16T10:45:27.438Z,10.63
2019-04-16T10:48:16.301Z,11.80
2019-04-16T10:50:56.217Z,11.95
2019-04-16T10:53:40.397Z,11.93
2019-04-16T10:56:35.268Z,11.38
2019-04-16T10:59:22.951Z,11.20
2019-04-16T11:02:11.993Z,9.95
2019-04-16T11:05:04.005Z,11.03
2019-04-16T11:07:34.093Z,10.55
2019-04-16T11:10:04.417Z,11.22
2019-04-16T11:12:34.651Z,11.57
2019-04-16T11:15:04.753Z,10.65
2019-04-16T11:17:34.870Z,10.60
2019-04-16T11:20:06.189Z,10.98
2019-04-16T11:22:36.490Z,10.78
2019-04-16T11:25:06.588Z,10.08
2019-04-16T11:27:36.618Z,10.38
2019-04-16T11:30:09.192Z,10.65
2019-04-16T11:32:40.153Z,9.78
2019-04-16T11:35:13.086Z,10.48
2019-04-16T11:37:44.441Z,8.60
2019-04-16T11:40:13.640Z,9.40
2019-04-16T11:42:43.581Z,10.30
2019-04-16T11:45:14.703Z,9.78
2019-04-16T11:47:47.973Z,9.53
2019-04-16T11:50:16.305Z,9.33
2019-04-16T11:52:46.264Z,9.30
2019-04-16T11:55:16.454Z,9.03
2019-04-16T11:57:46.565Z,8.63
2019-04-16T12:00:22.143Z,8.40
2019-04-16T12:02:59.181Z,7.80
2019-04-16T12:05:44.643Z,8.38
2019-04-16T12:08:36.533Z,8.73
2019-04-16T12:11:27.092Z,9.05
2019-04-16T12:14:08.697Z,8.43
2019-04-16T12:16:55.858Z,9.68
2019-04-16T12:19:44.954Z,9.95
2019-04-16T12:22:45.663Z,9.80
2019-04-16T12:25:33.449Z,10.38
2019-04-16T12:28:31.611Z,9.95
2019-04-16T12:31:26.703Z,9.43
2019-04-16T12:34:13.249Z,9.53
2019-04-16T12:37:00.940Z,9.08
2019-04-16T12:39:43.878Z,9.38
2019-04-16T12:42:42.137Z,9.60
2019-04-16T12:45:32.104Z,9.83
2019-04-16T12:48:33.452Z,9.48
2019-04-16T12:51:40.786Z,9.48
2019-04-16T12:54:13.752Z,9.88
2019-04-16T12:57:02.660Z,9.03
2019-04-16T13:00:00.738Z,8.53
2019-04-16T13:02:48.645Z,9.18
2019-04-16T13:05:44.641Z,9.38
2019-04-16T13:08:32.441Z,8.43
2019-04-16T13:11:19.355Z,6.72
2019-04-16T13:14:14.167Z,8.93
2019-04-16T13:17:09.120Z,8.38
2019-04-16T13:19:44.109Z,8.45
2019-04-16T13:22:15.359Z,8.60
2019-04-16T13:24:52.696Z,8.03
2019-04-16T13:27:25.299Z,8.40
2019-04-16T13:29:55.414Z,8.18
2019-04-16T13:32:27.839Z,8.65
2019-04-16T13:34:58.242Z,8.95
2019-04-16T13:37:30.556Z,8.60
2019-04-16T13:40:09.021Z,7.87
2019-04-16T13:42:39.065Z,6.80
2019-04-16T13:45:37.517Z,8.28
2019-04-16T13:48:17.786Z,10.20
2019-04-16T13:50:53.244Z,9.30
2019-04-16T13:53:40.958Z,10.20
2019-04-16T13:56:51.583Z,8.68
2019-04-16T13:59:24.666Z,10.30
2019-04-16T14:02:21.982Z,9.43
2019-04-16T14:04:52.028Z,10.60
2019-04-16T14:07:25.277Z,9.78
2019-04-16T14:09:53.835Z,11.65
2019-04-16T14:12:40.813Z,10.75
2019-04-16T14:14:55.650Z,9.45
2019-04-16T14:17:26.883Z,10.95
2019-04-16T14:19:56.863Z,8.93
2019-04-16T14:22:26.903Z,9.60
2019-04-16T14:24:56.922Z,9.30
2019-04-16T14:27:27.021Z,9.03
2019-04-16T14:29:59.109Z,8.88
2019-04-16T14:32:28.936Z,9.60
2019-04-16T14:35:00.855Z,8.70
2019-04-16T14:37:30.802Z,8.30
2019-04-16T14:40:14.796Z,8.73
2019-04-16T14:42:44.945Z,8.63
2019-04-16T14:45:23.620Z,11.85
2019-04-16T14:47:53.643Z,8.70
2019-04-16T14:50:24.460Z,8.55
2019-04-16T14:52:54.676Z,8.98
2019-04-16T14:55:58.745Z,9.08
2019-04-16T14:58:33.017Z,8.70
2019-04-16T15:01:27.985Z,8.88
2019-04-16T15:04:25.756Z,8.55
2019-04-16T15:07:09.788Z,8.75
2019-04-16T15:09:51.015Z,8.18
2019-04-16T15:12:38.679Z,8.20
2019-04-16T15:15:31.396Z,8.65
2019-04-16T15:18:11.840Z,8.48
2019-04-16T15:21:03.256Z,8.25
2019-04-16T15:23:37.079Z,8.78
2019-04-16T15:26:44.160Z,7.78
2019-04-16T15:29:45.279Z,8.15
2019-04-16T15:32:34.089Z,8.75
2019-04-16T15:35:05.743Z,8.28
2019-04-16T15:37:59.168Z,8.38
2019-04-16T15:40:47.249Z,8.15
2019-04-16T15:43:38.041Z,7.97
2019-04-16T15:46:34.637Z,8.00
2019-04-16T15:49:24.066Z,7.78
2019-04-16T15:52:18.999Z,7.15
2019-04-16T15:55:00.401Z,7.08
2019-04-16T15:57:58.509Z,7.75
2019-04-16T16:00:45.147Z,7.45
2019-04-16T16:03:30.200Z,7.10
2019-04-16T16:06:10.909Z,7.25
2019-04-16T16:08:48.458Z,7.60
2019-04-16T16:11:21.621Z,6.75
2019-04-16T16:13:51.735Z,7.17
2019-04-16T16:16:21.705Z,7.45
2019-04-16T16:18:51.745Z,7.33
2019-04-16T16:21:21.802Z,7.35
2019-04-16T16:23:51.891Z,7.12
2019-04-16T16:26:21.939Z,7.45
2019-04-16T16:28:51.944Z,7.50
2019-04-16T16:31:21.948Z,7.40
2019-04-16T16:33:52.049Z,8.38
2019-04-16T16:36:22.105Z,7.15
2019-04-16T16:38:52.121Z,8.58
2019-04-16T16:41:22.142Z,7.90
2019-04-16T16:43:52.240Z,7.92
2019-04-16T16:46:57.202Z,6.95
2019-04-16T16:49:27.669Z,7.42
2019-04-16T16:52:19.659Z,7.25
2019-04-16T16:54:50.405Z,6.72
2019-04-16T16:57:23.321Z,6.85
2019-04-16T17:00:10.849Z,6.97
2019-04-16T17:02:53.936Z,7.85
2019-04-16T17:05:30.507Z,6.67
2019-04-16T17:08:00.568Z,5.80
2019-04-16T17:10:30.592Z,7.12
2019-04-16T17:13:00.590Z,6.62
2019-04-16T17:15:30.796Z,6.62
2019-04-16T17:18:01.131Z,6.60
2019-04-16T17:20:31.398Z,6.78
2019-04-16T17:23:01.507Z,6.72
2019-04-16T17:25:36.583Z,6.47
2019-04-16T17:28:03.275Z,7.03
2019-04-16T17:30:33.362Z,7.12
2019-04-16T17:33:03.429Z,6.53
2019-04-16T17:35:33.459Z,7.03
2019-04-16T17:38:05.046Z,6.20
2019-04-16T17:40:58.074Z,6.95
2019-04-16T17:46:17.108Z,7.20
2019-04-16T17:48:58.605Z,6.80
2019-04-16T17:51:42.893Z,7.53
2019-04-16T17:54:27.770Z,6.75
2019-04-16T17:57:15.210Z,6.78
2019-04-16T18:00:07.079Z,7.00
2019-04-16T18:03:15.222Z,8.55
2019-04-16T18:05:51.770Z,6.85
2019-04-16T18:08:44.409Z,7.53
2019-04-16T18:11:23.505Z,7.75
2019-04-16T18:14:11.919Z,8.48
2019-04-16T18:16:54.111Z,8.38
2019-04-16T18:19:50.328Z,7.20
2019-04-16T18:22:26.755Z,8.50
2019-04-16T18:25:14.302Z,8.15
2019-04-16T18:27:51.238Z,9.13
2019-04-16T18:30:46.190Z,8.27
2019-04-16T18:33:32.516Z,9.60
2019-04-16T18:36:23.288Z,9.35
2019-04-16T18:39:21.217Z,10.08
2019-04-16T18:41:58.309Z,10.30
2019-04-16T18:44:45.753Z,10.35
2019-04-16T18:47:34.744Z,7.87
2019-04-16T18:50:08.021Z,10.65
2019-04-16T18:52:38.139Z,11.03
2019-04-16T18:55:08.320Z,11.63
2019-04-16T18:57:39.240Z,11.20
2019-04-16T19:00:28.745Z,11.00
2019-04-16T19:02:58.955Z,11.50
2019-04-16T19:05:29.022Z,11.30
2019-04-16T19:07:59.902Z,12.73
2019-04-16T19:10:30.831Z,13.03
2019-04-16T19:13:00.832Z,14.33
2019-04-16T19:15:31.004Z,14.13
2019-04-16T19:18:17.313Z,14.98
2019-04-16T19:20:32.739Z,16.93
2019-04-16T19:23:03.294Z,15.90
2019-04-16T19:25:33.459Z,17.05
2019-04-16T19:28:06.625Z,17.75
2019-04-16T19:30:35.161Z,17.90
2019-04-16T19:33:05.279Z,18.77
2019-04-16T19:35:35.338Z,18.92
2019-04-16T19:38:06.471Z,17.67
2019-04-16T19:40:37.494Z,18.95
2019-04-16T19:43:07.501Z,18.82
2019-04-16T19:45:44.565Z,18.55
2019-04-16T19:48:35.445Z,19.67
2019-04-16T19:50:57.634Z,19.17
2019-04-16T19:53:28.793Z,18.98
2019-04-16T19:56:00.544Z,19.02
2019-04-16T19:58:31.958Z,18.70
2019-04-16T20:01:03.878Z,19.00
2019-04-16T20:03:35.521Z,19.27
2019-04-16T20:06:06.443Z,19.75
2019-04-16T20:08:39.788Z,19.60
2019-04-16T20:11:11.656Z,18.67
2019-04-16T20:13:41.927Z,18.60
2019-04-16T20:16:14.178Z,19.75
2019-04-16T20:18:51.060Z,18.98
2019-04-16T20:21:19.224Z,19.57
2019-04-16T20:23:50.406Z,18.15
2019-04-16T20:26:23.029Z,19.30
2019-04-16T20:28:54.882Z,18.98
2019-04-16T20:31:26.279Z,19.20
2019-04-16T20:33:57.815Z,18.25
2019-04-16T20:36:30.396Z,19.00
2019-04-16T20:39:07.039Z,19.20
2019-04-16T20:41:39.012Z,19.50
2019-04-16T20:44:10.759Z,18.35
2019-04-16T20:46:43.594Z,17.50
2019-04-16T20:49:16.841Z,18.52
2019-04-16T20:51:49.829Z,17.75
2019-04-16T20:54:22.359Z,18.15
2019-04-16T20:56:53.994Z,18.73
2019-04-16T20:59:25.529Z,17.25
2019-04-16T21:01:58.367Z,17.67
2019-04-16T21:04:30.978Z,17.12
2019-04-16T21:07:04.182Z,17.75
2019-04-16T21:09:36.378Z,17.70
2019-04-16T21:12:12.894Z,16.77
2019-04-16T21:14:41.987Z,16.95
2019-04-16T21:17:15.329Z,16.57
2019-04-16T21:19:48.512Z,16.45
2019-04-16T21:22:18.749Z,16.95
2019-04-16T21:24:48.804Z,16.25
2019-04-16T21:27:18.877Z,16.80
2019-04-16T21:29:49.008Z,16.23
2019-04-16T21:32:37.932Z,16.67
2019-04-16T21:35:14.603Z,16.10
2019-04-16T21:37:53.919Z,15.23
2019-04-16T21:40:24.127Z,16.25
2019-04-16T21:42:54.091Z,16.20
2019-04-16T21:45:24.171Z,16.10
2019-04-16T21:47:55.156Z,15.58
2019-04-16T21:50:25.860Z,15.60
2019-04-16T21:52:56.655Z,15.88
2019-04-16T21:55:26.882Z,16.45
2019-04-16T21:57:56.886Z,14.87
2019-04-16T22:00:44.723Z,16.27
2019-04-16T22:03:15.185Z,15.78
2019-04-16T22:05:48.157Z,15.70
2019-04-16T22:08:17.108Z,16.52
2019-04-16T22:10:47.275Z,15.48
2019-04-16T22:13:19.470Z,15.63
2019-04-16T22:15:49.282Z,15.80
2019-04-16T22:18:19.711Z,15.98
2019-04-16T22:20:49.928Z,15.60
2019-04-16T22:23:20.121Z,16.30
2019-04-16T22:25:50.278Z,15.88
2019-04-16T22:28:20.531Z,15.38
2019-04-16T22:30:51.582Z,16.27
2019-04-16T22:33:22.475Z,16.25
2019-04-16T22:35:52.463Z,15.98
2019-04-16T22:38:22.491Z,15.88
2019-04-16T22:40:58.015Z,14.93
2019-04-16T22:43:49.922Z,15.83
2019-04-16T22:46:23.874Z,15.72
2019-04-16T22:49:01.247Z,16.10
2019-04-16T22:51:31.254Z,15.78
2019-04-16T22:54:01.296Z,15.23
2019-04-16T22:56:51.099Z,14.87
2019-04-16T22:59:21.223Z,15.13
2019-04-16T23:01:53.157Z,15.65
2019-04-16T23:04:26.079Z,15.60
2019-04-16T23:06:54.835Z,14.33
2019-04-16T23:09:27.144Z,14.85
2019-04-16T23:11:57.248Z,15.32
2019-04-16T23:14:27.369Z,15.50
2019-04-16T23:16:57.554Z,16.05
2019-04-16T23:19:27.599Z,15.38
2019-04-16T23:21:58.237Z,14.93
2019-04-16T23:24:28.461Z,14.83
2019-04-16T23:26:58.541Z,16.07
2019-04-16T23:29:28.575Z,15.43
2019-04-16T23:32:01.665Z,15.23
2019-04-16T23:34:31.732Z,15.28
2019-04-16T23:37:01.803Z,15.72
2019-04-16T23:39:33.610Z,15.25
2019-04-16T23:42:04.254Z,15.45
2019-04-16T23:44:54.634Z,15.23
2019-04-16T23:47:43.157Z,13.83
2019-04-16T23:50:44.180Z,15.53
2019-04-16T23:53:16.808Z,15.10
2019-04-16T23:56:05.799Z,15.32
2019-04-16T23:59:02.662Z,15.63
